createdAt,value
2023-04-05T00:02:22.364Z,5.19
2023-04-05T00:04:54.890Z,5.10
2023-04-05T00:07:26.488Z,4.69
2023-04-05T00:09:55.833Z,4.84
2023-04-05T00:12:27.574Z,5.22
2023-04-05T00:15:01.107Z,5.28
2023-04-05T00:17:31.610Z,4.83
2023-04-05T00:20:01.978Z,5.11
2023-04-05T00:22:34.137Z,5.04
2023-04-05T00:25:05.690Z,5.02
2023-04-05T00:27:34.878Z,4.88
2023-04-05T00:30:10.036Z,4.73
2023-04-05T00:32:39.770Z,4.77
2023-04-05T00:35:10.472Z,4.71
2023-04-05T00:37:39.718Z,4.73
2023-04-05T00:40:10.605Z,4.64
2023-04-05T00:42:39.752Z,4.73
2023-04-05T00:45:11.370Z,4.73
2023-04-05T00:47:43.102Z,5.10
2023-04-05T00:50:16.822Z,4.74
2023-04-05T00:52:46.663Z,4.97
2023-04-05T00:55:15.961Z,5.11
2023-04-05T00:57:50.117Z,4.88
2023-04-05T01:00:23.044Z,5.09
2023-04-05T01:03:01.870Z,4.97
2023-04-05T01:05:39.679Z,5.03
2023-04-05T01:08:19.792Z,4.52
2023-04-05T01:10:56.536Z,5.05
2023-04-05T01:13:27.422Z,4.72
2023-04-05T01:16:00.837Z,4.92
2023-04-05T01:18:31.226Z,5.02
2023-04-05T01:21:34.080Z,5.00
2023-04-05T01:24:15.397Z,5.00
2023-04-05T01:27:03.061Z,5.11
2023-04-05T01:29:54.971Z,5.26
2023-04-05T01:32:47.934Z,5.21
2023-04-05T01:35:23.494Z,5.24
2023-04-05T01:38:01.148Z,4.89
2023-04-05T01:40:32.012Z,5.06
2023-04-05T01:43:03.241Z,4.70
2023-04-05T01:45:33.518Z,5.02
2023-04-05T01:48:02.809Z,4.90
2023-04-05T01:50:31.807Z,4.88
2023-04-05T01:53:00.857Z,4.85
2023-04-05T01:55:29.950Z,4.86
2023-04-05T01:57:59.233Z,4.87
2023-04-05T02:00:29.269Z,4.72
2023-04-05T02:03:02.188Z,4.33
2023-04-05T02:05:32.222Z,4.22
2023-04-05T02:08:01.282Z,4.69
2023-04-05T02:10:30.369Z,4.85
2023-04-05T02:13:02.940Z,4.45
2023-04-05T02:15:35.554Z,4.79
2023-04-05T02:18:08.126Z,4.87
2023-04-05T02:20:37.749Z,4.84
2023-04-05T02:23:07.724Z,4.82
2023-04-05T02:25:37.387Z,5.15
2023-04-05T02:28:11.836Z,5.00
2023-04-05T02:30:41.683Z,4.93
2023-04-05T02:33:14.432Z,4.88
2023-04-05T02:35:43.621Z,4.74
2023-04-05T02:38:13.079Z,4.78
2023-04-05T02:40:47.283Z,4.45
2023-04-05T02:43:16.555Z,4.77
2023-04-05T02:45:47.109Z,4.82
2023-04-05T02:48:21.587Z,4.96
2023-04-05T02:50:51.700Z,4.87
2023-04-05T02:53:22.509Z,4.86
2023-04-05T02:56:00.221Z,4.92
2023-04-05T02:58:30.600Z,4.99
2023-04-05T03:01:01.811Z,4.64
2023-04-05T03:03:35.716Z,4.75
2023-04-05T03:06:10.478Z,4.81
2023-04-05T03:08:49.922Z,4.62
2023-04-05T03:11:24.105Z,4.83
2023-04-05T03:13:57.763Z,4.99
2023-04-05T03:16:46.834Z,4.63
2023-04-05T03:19:27.410Z,4.79
2023-04-05T03:22:03.138Z,4.95
2023-04-05T03:24:35.969Z,4.79
2023-04-05T03:28:24.973Z,4.93
2023-04-05T03:30:33.549Z,3.77
2023-04-05T03:33:13.933Z,4.78
2023-04-05T03:35:51.049Z,4.90
2023-04-05T03:38:23.158Z,4.67
2023-04-05T03:41:06.997Z,4.67
2023-04-05T03:43:39.420Z,4.63
2023-04-05T03:46:10.703Z,4.55
2023-04-05T03:48:40.612Z,4.66
2023-04-05T03:51:11.127Z,4.83
2023-04-05T03:53:40.943Z,5.05
2023-04-05T03:56:15.821Z,4.99
2023-04-05T03:58:48.659Z,5.01
2023-04-05T04:01:19.912Z,4.70
2023-04-05T04:03:48.997Z,4.85
2023-04-05T04:06:19.805Z,4.71
2023-04-05T04:08:49.233Z,4.71
2023-04-05T04:11:18.336Z,4.92
2023-04-05T04:13:47.634Z,5.07
2023-04-05T04:16:35.514Z,5.17
2023-04-05T04:19:24.248Z,5.21
2023-04-05T04:22:40.810Z,5.24
2023-04-05T04:25:31.584Z,5.22
2023-04-05T04:28:08.114Z,4.97
2023-04-05T04:30:58.222Z,5.24
2023-04-05T04:33:38.497Z,5.32
2023-04-05T04:36:37.163Z,5.52
2023-04-05T04:39:45.081Z,5.42
2023-04-05T04:42:39.176Z,5.14
2023-04-05T04:45:20.811Z,5.08
2023-04-05T04:48:10.635Z,5.15
2023-04-05T04:51:00.314Z,4.99
2023-04-05T04:53:36.335Z,5.23
2023-04-05T04:56:09.949Z,4.63
2023-04-05T04:58:41.481Z,4.89
2023-04-05T05:01:12.072Z,5.13
2023-04-05T05:03:41.471Z,5.14
2023-04-05T05:06:13.217Z,5.32
2023-04-05T05:08:42.263Z,4.92
2023-04-05T05:11:12.696Z,4.90
2023-04-05T05:13:45.228Z,5.00
2023-04-05T05:16:22.727Z,5.23
2023-04-05T05:18:52.722Z,5.07
2023-04-05T05:24:10.190Z,5.27
2023-04-05T05:26:42.943Z,5.15
2023-04-05T05:29:12.222Z,5.34
2023-04-05T05:31:45.256Z,5.11
2023-04-05T05:34:16.087Z,4.70
2023-04-05T05:36:52.550Z,4.82
2023-04-05T05:39:22.042Z,5.10
2023-04-05T05:41:53.710Z,4.80
2023-04-05T05:44:22.925Z,4.96
2023-04-05T05:46:52.046Z,5.10
2023-04-05T05:49:21.981Z,5.34
2023-04-05T05:51:52.769Z,4.89
2023-04-05T05:54:22.359Z,4.70
2023-04-05T05:56:52.853Z,4.94
2023-04-05T05:59:22.074Z,4.85
2023-04-05T06:01:52.321Z,5.02
2023-04-05T06:04:22.130Z,4.94
2023-04-05T06:06:51.713Z,5.10
2023-04-05T06:09:23.978Z,5.20
2023-04-05T06:11:57.216Z,5.14
2023-04-05T06:14:36.473Z,5.03
2023-04-05T06:17:06.637Z,5.42
2023-04-05T06:19:36.095Z,5.25
2023-04-05T06:22:05.443Z,4.99
2023-04-05T06:24:38.872Z,5.20
2023-04-05T06:27:11.306Z,4.95
2023-04-05T06:29:46.295Z,5.32
2023-04-05T06:32:15.866Z,4.89
2023-04-05T06:34:49.114Z,4.91
2023-04-05T06:37:19.290Z,4.84
2023-04-05T06:39:50.880Z,5.07
2023-04-05T06:42:22.547Z,4.91
2023-04-05T06:44:59.211Z,5.33
2023-04-05T06:47:28.676Z,4.77
2023-04-05T06:50:06.224Z,4.96
2023-04-05T06:52:36.227Z,4.80
2023-04-05T06:55:07.986Z,5.04
2023-04-05T06:57:40.185Z,5.16
2023-04-05T07:00:12.802Z,4.77
2023-04-05T07:02:42.143Z,4.85
2023-04-05T07:05:11.685Z,5.29
2023-04-05T07:07:48.802Z,4.95
2023-04-05T07:10:18.787Z,5.06
2023-04-05T07:12:51.757Z,5.21
2023-04-05T07:15:23.345Z,5.08
2023-04-05T07:17:58.638Z,5.37
2023-04-05T07:20:27.774Z,5.34
2023-04-05T07:22:58.779Z,5.22
2023-04-05T07:25:30.492Z,5.22
2023-04-05T07:28:04.337Z,5.53
2023-04-05T07:30:38.019Z,5.44
2023-04-05T07:33:09.036Z,5.36
2023-04-05T07:35:38.197Z,5.35
2023-04-05T07:38:08.785Z,5.86
2023-04-05T07:40:38.750Z,5.92
2023-04-05T07:43:12.110Z,5.90
2023-04-05T07:45:41.506Z,5.65
2023-04-05T07:48:11.416Z,6.07
2023-04-05T07:50:41.399Z,6.47
2023-04-05T07:53:10.896Z,6.27
2023-04-05T07:55:42.276Z,6.66
2023-04-05T07:58:16.425Z,6.29
2023-04-05T08:00:45.665Z,6.33
2023-04-05T08:03:16.240Z,6.18
2023-04-05T08:05:46.260Z,6.12
2023-04-05T08:08:15.613Z,5.99
2023-04-05T08:10:45.133Z,6.27
2023-04-05T08:13:18.635Z,6.91
2023-04-05T08:15:49.080Z,6.88
2023-04-05T08:18:19.318Z,6.85
2023-04-05T08:20:54.764Z,7.06
2023-04-05T08:23:27.700Z,6.66
2023-04-05T08:25:57.130Z,6.40
2023-04-05T08:28:28.132Z,6.70
2023-04-05T08:30:57.817Z,6.30
2023-04-05T08:33:31.236Z,6.19
2023-04-05T08:36:05.828Z,6.42
2023-04-05T08:38:35.478Z,6.11
2023-04-05T08:41:16.469Z,6.21
2023-04-05T08:43:56.436Z,6.50
2023-04-05T08:46:26.226Z,6.12
2023-04-05T08:48:56.417Z,5.74
2023-04-05T08:51:27.829Z,5.86
2023-04-05T08:53:57.981Z,6.11
2023-04-05T08:56:32.555Z,5.70
2023-04-05T08:59:05.966Z,5.56
2023-04-05T09:01:43.595Z,5.20
2023-04-05T09:04:18.142Z,5.57
2023-04-05T09:06:48.672Z,5.36
2023-04-05T09:09:22.539Z,5.63
2023-04-05T09:11:52.201Z,5.66
2023-04-05T09:14:23.237Z,5.42
2023-04-05T09:16:53.298Z,5.81
2023-04-05T09:19:22.341Z,5.85
2023-04-05T09:22:01.852Z,5.63
2023-04-05T09:24:37.025Z,5.79
2023-04-05T09:27:08.573Z,6.35
2023-04-05T09:29:40.631Z,6.27
2023-04-05T09:32:13.885Z,6.56
2023-04-05T09:34:44.563Z,6.30
2023-04-05T09:37:22.698Z,6.15
2023-04-05T09:40:04.015Z,6.01
2023-04-05T09:42:44.919Z,6.58
2023-04-05T09:45:16.572Z,6.66
2023-04-05T09:47:58.219Z,6.59
2023-04-05T09:50:29.283Z,6.33
2023-04-05T09:53:09.724Z,6.72
2023-04-05T09:55:40.269Z,6.76
2023-04-05T09:58:13.985Z,6.89
2023-04-05T10:00:59.925Z,6.80
2023-04-05T10:03:32.437Z,6.24
2023-04-05T10:06:02.049Z,6.43
2023-04-05T10:08:34.528Z,6.38
2023-04-05T10:11:10.556Z,6.77
2023-04-05T10:13:41.331Z,6.87
2023-04-05T10:16:20.664Z,6.71
2023-04-05T10:19:09.145Z,6.66
2023-04-05T10:21:45.106Z,7.25
2023-04-05T10:24:27.627Z,6.76
2023-04-05T10:27:06.217Z,7.08
2023-04-05T10:29:45.502Z,7.26
2023-04-05T10:32:26.205Z,7.32
2023-04-05T10:35:02.485Z,7.44
2023-04-05T10:37:56.124Z,7.94
2023-04-05T10:40:31.136Z,7.49
2023-04-05T10:43:01.380Z,7.29
2023-04-05T10:45:35.649Z,7.63
2023-04-05T10:48:17.321Z,8.00
2023-04-05T10:50:50.116Z,7.80
2023-04-05T10:53:38.872Z,7.42
2023-04-05T10:56:09.495Z,7.67
2023-04-05T10:58:45.441Z,7.60
2023-04-05T11:01:18.969Z,7.25
2023-04-05T11:03:54.002Z,7.34
2023-04-05T11:06:35.992Z,7.52
2023-04-05T11:09:13.536Z,7.58
2023-04-05T11:11:44.276Z,8.13
2023-04-05T11:14:25.868Z,8.34
2023-04-05T11:16:56.974Z,7.58
2023-04-05T11:19:53.511Z,7.83
2023-04-05T11:22:36.563Z,7.87
2023-04-05T11:25:07.043Z,7.58
2023-04-05T11:27:42.022Z,8.04
2023-04-05T11:30:13.987Z,7.74
2023-04-05T11:32:45.036Z,7.58
2023-04-05T11:35:17.793Z,7.76
2023-04-05T11:37:58.931Z,7.94
2023-04-05T11:40:29.951Z,8.28
2023-04-05T11:43:06.006Z,7.91
2023-04-05T11:45:36.276Z,7.68
2023-04-05T11:48:10.840Z,8.08
2023-04-05T11:50:43.028Z,7.94
2023-04-05T11:53:13.594Z,7.56
2023-04-05T11:55:44.360Z,7.99
2023-04-05T11:58:16.228Z,7.82
2023-04-05T12:00:47.222Z,8.07
2023-04-05T12:03:17.308Z,7.83
2023-04-05T12:05:49.884Z,8.02
2023-04-05T12:08:21.647Z,7.57
2023-04-05T12:10:57.706Z,7.75
2023-04-05T12:13:28.823Z,7.44
2023-04-05T12:16:00.719Z,7.42
2023-04-05T12:18:32.226Z,7.40
2023-04-05T12:21:06.421Z,7.46
2023-04-05T12:23:37.466Z,7.59
2023-04-05T12:26:09.816Z,7.57
2023-04-05T12:28:51.874Z,7.72
2023-04-05T12:31:39.851Z,7.81
2023-04-05T12:34:10.165Z,7.77
2023-04-05T12:36:45.787Z,7.40
2023-04-05T12:39:18.550Z,8.05
2023-04-05T12:41:58.514Z,7.70
2023-04-05T12:44:31.728Z,8.43
2023-04-05T12:47:05.376Z,8.28
2023-04-05T12:49:38.755Z,7.62
2023-04-05T12:52:09.675Z,8.15
2023-04-05T12:54:40.611Z,8.23
2023-04-05T12:57:13.094Z,8.50
2023-04-05T12:59:42.448Z,8.08
2023-04-05T13:02:11.691Z,7.85
2023-04-05T13:04:41.551Z,8.23
2023-04-05T13:07:13.846Z,7.71
2023-04-05T13:09:43.573Z,7.66
2023-04-05T13:12:13.085Z,8.04
2023-04-05T13:14:42.654Z,7.42
2023-04-05T13:17:12.168Z,7.59
2023-04-05T13:19:41.347Z,7.85
2023-04-05T13:22:12.121Z,7.56
2023-04-05T13:24:41.272Z,6.92
2023-04-05T13:27:10.461Z,7.99
2023-04-05T13:29:39.901Z,7.94
2023-04-05T13:32:09.114Z,7.67
2023-04-05T13:34:38.282Z,7.43
2023-04-05T13:37:07.931Z,7.87
2023-04-05T13:39:38.416Z,7.41
2023-04-05T13:42:07.647Z,7.31
2023-04-05T13:44:38.411Z,7.28
2023-04-05T13:47:07.746Z,7.01
2023-04-05T13:49:37.183Z,7.50
2023-04-05T13:52:06.892Z,7.63
2023-04-05T13:54:36.096Z,7.45
2023-04-05T13:57:06.823Z,7.32
2023-04-05T13:59:35.988Z,7.11
2023-04-05T14:02:05.521Z,7.06
2023-04-05T14:04:34.786Z,6.91
2023-04-05T14:07:04.000Z,7.33
2023-04-05T14:09:33.376Z,7.70
2023-04-05T14:12:04.580Z,7.56
2023-04-05T14:14:35.530Z,7.31
2023-04-05T14:17:09.120Z,7.15
2023-04-05T14:19:38.979Z,7.50
2023-04-05T14:22:08.235Z,7.73
2023-04-05T14:24:37.300Z,6.96
2023-04-05T14:27:06.487Z,7.12
2023-04-05T14:29:37.247Z,7.09
2023-04-05T14:32:07.083Z,7.08
2023-04-05T14:34:36.602Z,7.22
2023-04-05T14:37:06.761Z,7.25
2023-04-05T14:39:36.042Z,7.20
2023-04-05T14:42:05.714Z,7.16
2023-04-05T14:44:36.403Z,7.35
2023-04-05T14:47:05.979Z,7.61
2023-04-05T14:49:34.993Z,7.44
2023-04-05T14:52:05.403Z,7.19
2023-04-05T14:54:36.224Z,7.22
2023-04-05T14:57:12.179Z,7.30
2023-04-05T14:59:45.188Z,7.58
2023-04-05T15:02:14.780Z,7.35
2023-04-05T15:04:43.958Z,7.41
2023-04-05T15:07:13.252Z,7.49
2023-04-05T15:09:52.405Z,7.59
2023-04-05T15:12:22.616Z,7.69
2023-04-05T15:14:55.866Z,7.43
2023-04-05T15:17:28.801Z,7.12
2023-04-05T15:19:58.028Z,7.54
2023-04-05T15:22:30.016Z,7.80
2023-04-05T15:25:02.560Z,7.45
2023-04-05T15:27:51.229Z,7.76
2023-04-05T15:30:22.570Z,7.78
2023-04-05T15:32:56.845Z,7.09
2023-04-05T15:35:28.369Z,7.45
2023-04-05T15:37:58.871Z,7.38
2023-04-05T15:40:31.531Z,7.62
2023-04-05T15:43:01.456Z,6.60
2023-04-05T15:45:32.782Z,7.71
2023-04-05T15:48:04.978Z,7.58
2023-04-05T15:50:38.244Z,7.57
2023-04-05T15:53:11.355Z,7.69
2023-04-05T15:55:41.261Z,7.52
2023-04-05T15:58:11.172Z,7.18
2023-04-05T16:00:42.847Z,7.42
2023-04-05T16:03:12.559Z,6.52
2023-04-05T16:05:42.630Z,7.22
2023-04-05T16:08:15.199Z,6.26
2023-04-05T16:10:45.068Z,7.27
2023-04-05T16:13:17.681Z,7.38
2023-04-05T16:15:49.082Z,7.61
2023-04-05T16:18:21.319Z,7.64
2023-04-05T16:20:51.689Z,7.41
2023-04-05T16:23:22.448Z,7.18
2023-04-05T16:25:52.305Z,7.19
2023-04-05T16:28:21.748Z,7.16
2023-04-05T16:30:54.370Z,7.34
2023-04-05T16:33:23.824Z,7.40
2023-04-05T16:35:53.476Z,7.41
2023-04-05T16:38:22.721Z,7.13
2023-04-05T16:40:52.537Z,7.36
2023-04-05T16:43:21.968Z,7.24
2023-04-05T16:45:52.847Z,7.42
2023-04-05T16:48:22.793Z,7.38
2023-04-05T16:50:52.292Z,7.33
2023-04-05T16:53:21.376Z,7.43
2023-04-05T16:55:50.997Z,7.40
2023-04-05T16:58:20.296Z,7.61
2023-04-05T17:00:51.358Z,7.46
2023-04-05T17:03:22.901Z,7.40
2023-04-05T17:05:52.601Z,7.41
2023-04-05T17:08:22.191Z,7.46
2023-04-05T17:10:52.262Z,7.28
2023-04-05T17:13:22.088Z,7.32
2023-04-05T17:15:52.474Z,7.51
2023-04-05T17:18:23.091Z,7.72
2023-04-05T17:20:52.424Z,7.55
2023-04-05T17:23:21.731Z,7.69
2023-04-05T17:25:51.363Z,7.51
2023-04-05T17:28:28.790Z,7.33
2023-04-05T17:30:58.931Z,7.38
2023-04-05T17:33:30.225Z,7.41
2023-04-05T17:36:04.769Z,7.71
2023-04-05T17:38:35.192Z,7.61
2023-04-05T17:41:04.403Z,7.60
2023-04-05T17:43:35.029Z,7.41
2023-04-05T17:46:10.796Z,7.57
2023-04-05T17:48:41.627Z,7.64
2023-04-05T17:51:42.742Z,7.38
2023-04-05T17:54:44.546Z,7.62
2023-04-05T17:57:15.706Z,7.64
2023-04-05T17:59:45.940Z,7.71
2023-04-05T18:02:20.956Z,7.63
2023-04-05T18:04:51.362Z,7.68
2023-04-05T18:07:20.741Z,7.84
2023-04-05T18:09:50.346Z,7.68
2023-04-05T18:12:19.754Z,7.89
2023-04-05T18:14:49.275Z,7.90
2023-04-05T18:17:20.279Z,7.76
2023-04-05T18:19:51.094Z,7.88
2023-04-05T18:22:20.541Z,7.86
2023-04-05T18:24:50.058Z,7.52
2023-04-05T18:27:19.121Z,7.67
2023-04-05T18:29:49.166Z,7.68
2023-04-05T18:32:20.378Z,8.00
2023-04-05T18:34:51.863Z,7.90
2023-04-05T18:37:21.438Z,7.88
2023-04-05T18:39:50.628Z,7.83
2023-04-05T18:42:20.717Z,7.75
2023-04-05T18:44:53.614Z,7.84
2023-04-05T18:47:24.348Z,7.90
2023-04-05T18:49:55.821Z,7.77
2023-04-05T18:52:27.442Z,7.78
2023-04-05T18:54:58.756Z,7.57
2023-04-05T18:57:28.079Z,7.69
2023-04-05T19:00:00.939Z,7.81
2023-04-05T19:02:31.537Z,7.97
2023-04-05T19:05:02.500Z,7.74
2023-04-05T19:07:32.081Z,7.69
2023-04-05T19:10:02.582Z,8.00
2023-04-05T19:12:45.075Z,8.01
2023-04-05T19:15:14.668Z,7.77
2023-04-05T19:17:44.747Z,8.02
2023-04-05T19:20:15.903Z,7.62
2023-04-05T19:22:46.314Z,7.75
2023-04-05T19:25:15.532Z,7.97
2023-04-05T19:27:47.248Z,8.00
2023-04-05T19:30:20.073Z,7.76
2023-04-05T19:32:49.984Z,7.89
2023-04-05T19:35:21.787Z,7.92
2023-04-05T19:37:51.637Z,8.09
2023-04-05T19:40:23.759Z,7.89
2023-04-05T19:42:52.799Z,7.89
2023-04-05T19:45:33.313Z,7.73
2023-04-05T19:48:07.307Z,7.81
2023-04-05T19:50:48.236Z,7.85
2023-04-05T19:53:51.190Z,8.06
2023-04-05T19:56:22.894Z,7.80
2023-04-05T19:58:57.787Z,8.04
2023-04-05T20:01:35.791Z,7.97
2023-04-05T20:04:33.212Z,7.60
2023-04-05T20:07:04.661Z,7.94
2023-04-05T20:09:34.908Z,7.61
2023-04-05T20:12:05.853Z,7.75
2023-04-05T20:14:42.602Z,8.00
2023-04-05T20:17:13.560Z,8.27
2023-04-05T20:20:00.609Z,7.89
2023-04-05T20:22:33.804Z,8.03
2023-04-05T20:25:28.396Z,8.00
2023-04-05T20:27:57.955Z,8.00
2023-04-05T20:30:27.604Z,7.94
2023-04-05T20:32:57.731Z,8.30
2023-04-05T20:35:32.328Z,8.15
2023-04-05T20:38:02.862Z,8.23
2023-04-05T20:40:31.921Z,7.95
2023-04-05T20:43:01.246Z,8.24
2023-04-05T20:45:30.689Z,8.36
2023-04-05T20:48:01.167Z,8.02
2023-04-05T20:50:30.940Z,8.25
2023-04-05T20:53:06.317Z,8.22
2023-04-05T20:55:35.814Z,8.16
2023-04-05T20:58:05.218Z,7.97
2023-04-05T21:00:41.494Z,8.34
2023-04-05T21:03:13.666Z,8.35
2023-04-05T21:05:42.765Z,8.01
2023-04-05T21:08:13.640Z,8.18
2023-04-05T21:10:42.807Z,7.86
2023-04-05T21:13:12.910Z,8.03
2023-04-05T21:15:42.489Z,8.02
2023-04-05T21:18:11.758Z,8.09
2023-04-05T21:20:41.374Z,7.95
2023-04-05T21:23:12.303Z,7.95
2023-04-05T21:25:42.004Z,8.01
2023-04-05T21:28:11.397Z,8.02
2023-04-05T21:30:40.705Z,7.97
2023-04-05T21:33:10.086Z,8.21
2023-04-05T21:35:39.366Z,8.15
2023-04-05T21:38:08.753Z,8.21
2023-04-05T21:40:39.795Z,8.27
2023-04-05T21:43:08.895Z,8.12
2023-04-05T21:45:38.249Z,8.36
2023-04-05T21:48:07.914Z,8.30
2023-04-05T21:50:37.475Z,8.17
2023-04-05T21:53:07.470Z,8.34
2023-04-05T21:55:38.140Z,8.29
2023-04-05T21:58:07.820Z,8.74
2023-04-05T22:00:37.896Z,8.53
2023-04-05T22:03:07.136Z,8.49
2023-04-05T22:05:41.197Z,8.62
2023-04-05T22:08:11.440Z,8.51
2023-04-05T22:10:43.894Z,8.53
2023-04-05T22:13:13.123Z,8.67
2023-04-05T22:15:44.205Z,8.61
2023-04-05T22:18:13.956Z,8.65
2023-04-05T22:20:43.534Z,8.34
2023-04-05T22:23:12.494Z,8.67
2023-04-05T22:25:42.950Z,8.52
2023-04-05T22:28:11.945Z,8.42
2023-04-05T22:30:44.320Z,8.60
2023-04-05T22:33:14.145Z,8.64
2023-04-05T22:35:43.851Z,8.70
2023-04-05T22:38:13.300Z,8.70
2023-04-05T22:40:45.424Z,8.86
2023-04-05T22:43:14.605Z,8.98
2023-04-05T22:45:43.805Z,8.92
2023-04-05T22:48:13.050Z,9.03
2023-04-05T22:50:42.408Z,9.22
2023-04-05T22:53:15.763Z,9.25
2023-04-05T22:55:48.974Z,9.26
2023-04-05T22:58:19.723Z,9.12
2023-04-05T23:00:49.168Z,9.49
2023-04-05T23:03:18.338Z,9.26
2023-04-05T23:05:48.550Z,9.23
2023-04-05T23:08:17.818Z,9.21
2023-04-05T23:10:48.938Z,9.40
2023-04-05T23:13:18.131Z,9.43
2023-04-05T23:15:49.955Z,9.65
2023-04-05T23:18:22.765Z,9.86
2023-04-05T23:20:52.398Z,9.57
2023-04-05T23:23:25.098Z,9.44
2023-04-05T23:25:55.499Z,9.55
2023-04-05T23:28:24.514Z,9.54
2023-04-05T23:30:53.663Z,9.58
2023-04-05T23:33:23.009Z,9.92
2023-04-05T23:35:52.160Z,9.77
2023-04-05T23:38:21.445Z,9.70
2023-04-05T23:40:50.943Z,9.55
2023-04-05T23:43:23.938Z,9.67
2023-04-05T23:45:53.164Z,9.73
2023-04-05T23:48:22.515Z,9.82
2023-04-05T23:50:51.627Z,9.67
2023-04-05T23:53:21.060Z,9.92
2023-04-05T23:55:53.318Z,9.91
2023-04-05T23:58:24.213Z,10.06
